Hlavní strana
METAR-TAF:

METAR-TAF

Letiště :

Tunis, Tunisko

zeměpisná šířka: 36-50N, zeměpisná délka: 010-14E, výška: 3 m

Aktuální stav počasí

Zpráva byla vytvořena před 28 minutami, v 02:30 UTC
vítr z různých směrů 2 kt
Teplota 9°C
Vlhkost vzduchu 93%
Tlak 1017 hPa
Viditelnost: 8000 m
Skoro jasno ve výšce 2400 ft

METAR: DTTA 220230Z VRB02KT 8000 FEW024 09/08 Q1017

Čas: 03:58 (02:58 UTC)

Předpověď počasí

Zpráva byla vytvořena před 3 hodinami a 58 minutami, v 23:00 UTC
Předpověď platná od 22 v 00 UTC do 22 v 24 UTC
Východojihovýchodní vítr 5 kt
Viditelnost: 8000 m
Polojasno ve výšce 2600 ft
Dočasný
od 22 v 10 UTC do 22 v 22 UTC
Severovýchodní vítr 15 kt s nárazy do 25 kt
Viditelnost: 4000 m
Skoro jasno ve výšce 2300 ft, Cumulonimbus.
bouřka, dešťové přeháňky

TAF: DTTA 212300Z 2200/2224 11005KT 8000 SCT026 TEMPO 2210/2222 05015G25KT 4000 TS SHRA FEW023CB

Stav a předpovědi počasí z více než 4 000 letišť (zprávy METAR a TAF).

Červené a žluté tečky na mapě představují dostupné meteorologické stanice.

Když kurzor umístíte na tečku, zobrazí se název stanice.

Pak kliknutím zobrazíte stav a předpověď počasí.

Chcete-li změnit mapu, kliknutím na zelené tlačítko se znaménkem +mapu přiblížíte, kliknutím na zelené tlačítko se znaménkem – mapu oddálíte a kliknutím na zelené šipky přejdete na sousední mapy.


METAR-TAF: